Grand Marsh, WI (53936)

7:37 PM CDT on April 30, 2017 (GMT -0500)
Fosnow's Marquette/Adams County Line | | Change Station

Elev 1083 ft 43.94 °N, 89.59 °W | Updated 9 seconds ago

Rain
Rain
36.5 °F
Feels Like 30 °F
N
8.1
Wind Variable Wind from NE
Gusts 15.0 mph

Today
High -- | Low -- °F
--% Chance of Precip.
Yesterday
High -- | Low -- °F
Precip. -- in
Pressure 29.91 in
Visibility 5.0 miles
Clouds Overcast 700 ft
Windchill 30 °F
Dew Point Not available.
Humidity Not available.
Rainfall 0.02 in
Snow Depth Not available.
5:51 AM 8:01 PM
Waxing Crescent, 27% visible
METAR KY50 302356Z AUTO 06016G23KT 5SM -RA BR OVC007 03/02 A2982 RMK AO2 RAB16 SLP127 P0000 6//// T00330022 10056 20033
Pressure 29.91 in
Visibility 5.0 miles
Clouds Overcast 700 ft
Windchill 30 °F
Dew Point Not available.
Humidity Not available.
Rainfall 0.02 in
Snow Depth Not available.
5:51 AM 8:01 PM
Waxing Crescent, 27% visible
METAR KY50 302356Z AUTO 06016G23KT 5SM -RA BR OVC007 03/02 A2982 RMK AO2 RAB16 SLP127 P0000 6//// T00330022 10056 20033

Get Severe Weather Alerts

Thanks for signing up!

Be on the lookout for a verification email in your inbox.

You'll start receiving the daily forecast at 8 AM.

×

10-Day Weather Forecast

Almanac

Astronomy

Apr. 30, 2017 Rise Set
Actual Time
Civil Twilight
Nautical Twilight
Astronomical Twilight
Moon
Length of Visible Light
Length of Day
Tomorrow will be .
, % of the Moon is Illuminated

Today's Extremes

State Highs State Lows

Community

WunderPhotos

WunderBlog® & News

Nearby

Air Quality

  Air Quality AQ Index Pollutant
Not available.

Snow Depth

Station Depth Elevation

Earthquake Activity

City Distance Mag. Time & Date
Minimum magnitude displayed is 2.5.

Coastal Water Temperatures

Place Temperature

Stations

Nearby Weather Stations

Station Location Temp. Windchill Dew Point Humidity Wind Precip. Elev Updated Type
                   

Watches & Warnings

There are currently no watches in effect.